createdAt,value
2023-01-05T00:01:50.723Z,67.67
2023-01-05T00:04:20.283Z,67.48
2023-01-05T00:06:48.811Z,67.53
2023-01-05T00:09:19.871Z,67.68
2023-01-05T00:12:06.272Z,67.42
2023-01-05T00:14:53.070Z,67.50
2023-01-05T00:17:42.961Z,67.66
2023-01-05T00:20:34.591Z,67.61
2023-01-05T00:23:04.420Z,67.60
2023-01-05T00:25:35.285Z,67.46
2023-01-05T00:28:04.948Z,67.55
2023-01-05T00:30:35.728Z,67.54
2023-01-05T00:33:09.879Z,67.38
2023-01-05T00:35:39.036Z,67.38
2023-01-05T00:38:09.395Z,67.29
2023-01-05T00:40:40.198Z,67.62
2023-01-05T00:43:09.096Z,67.50
2023-01-05T00:45:37.524Z,67.64
2023-01-05T00:48:08.267Z,67.39
2023-01-05T00:50:37.266Z,67.44
2023-01-05T00:53:05.727Z,67.30
2023-01-05T00:55:34.140Z,67.76
2023-01-05T00:58:02.497Z,67.79
2023-01-05T01:00:31.437Z,67.37
2023-01-05T01:03:00.344Z,67.43
2023-01-05T01:05:31.295Z,67.65
2023-01-05T01:08:00.510Z,67.98
2023-01-05T01:10:28.852Z,67.78
2023-01-05T01:12:59.193Z,67.97
2023-01-05T01:15:27.911Z,67.60
2023-01-05T01:17:56.890Z,68.10
2023-01-05T01:20:25.328Z,68.05
2023-01-05T01:22:57.103Z,67.79
2023-01-05T01:25:25.517Z,67.91
2023-01-05T01:27:54.892Z,67.77
2023-01-05T01:30:23.599Z,68.22
2023-01-05T01:32:52.750Z,67.86
2023-01-05T01:35:21.143Z,68.09
2023-01-05T01:37:49.968Z,68.23
2023-01-05T01:40:19.664Z,68.05
2023-01-05T01:42:48.052Z,68.14
2023-01-05T01:45:21.929Z,68.28
2023-01-05T01:47:55.213Z,68.46
2023-01-05T01:50:28.313Z,68.76
2023-01-05T01:53:02.144Z,68.41
2023-01-05T01:55:34.120Z,68.70
2023-01-05T01:58:07.262Z,68.49
2023-01-05T02:00:36.392Z,68.80
2023-01-05T02:03:06.001Z,69.16
2023-01-05T02:05:37.156Z,69.48
2023-01-05T02:08:12.454Z,69.21
2023-01-05T02:10:59.422Z,69.81
2023-01-05T02:13:44.931Z,69.54
2023-01-05T02:16:22.607Z,70.11
2023-01-05T02:19:10.801Z,70.08
2023-01-05T02:21:51.907Z,70.23
2023-01-05T02:24:48.931Z,70.05
2023-01-05T02:27:38.262Z,70.57
2023-01-05T02:30:39.268Z,70.45
2023-01-05T02:33:17.597Z,70.64
2023-01-05T02:35:54.039Z,70.45
2023-01-05T02:38:31.047Z,70.67
2023-01-05T02:41:08.835Z,70.78
2023-01-05T02:43:39.258Z,70.85
2023-01-05T02:46:07.707Z,70.93
2023-01-05T02:48:38.567Z,71.02
2023-01-05T02:51:12.098Z,70.80
2023-01-05T02:53:44.083Z,70.95
2023-01-05T02:56:20.416Z,71.20
2023-01-05T02:58:54.523Z,70.95
2023-01-05T03:01:27.502Z,71.32
2023-01-05T03:04:00.997Z,71.37
2023-01-05T03:06:34.014Z,71.42
2023-01-05T03:09:05.947Z,71.20
2023-01-05T03:11:56.905Z,71.38
2023-01-05T03:14:32.251Z,71.34
2023-01-05T03:17:03.181Z,71.72
2023-01-05T03:19:44.667Z,71.27
2023-01-05T03:22:38.148Z,71.51
2023-01-05T03:25:28.896Z,71.55
2023-01-05T03:28:19.001Z,71.82
2023-01-05T03:31:15.507Z,71.58
2023-01-05T03:34:07.905Z,71.88
2023-01-05T03:36:44.895Z,71.75
2023-01-05T03:39:16.389Z,71.56
2023-01-05T03:41:49.813Z,71.60
2023-01-05T03:44:18.371Z,71.79
2023-01-05T03:46:48.133Z,71.73
2023-01-05T03:49:18.463Z,71.99
2023-01-05T03:51:48.894Z,71.67
2023-01-05T03:54:18.010Z,72.04
2023-01-05T03:56:47.994Z,71.90
2023-01-05T03:59:17.449Z,71.74
2023-01-05T04:01:46.039Z,72.07
2023-01-05T04:04:16.803Z,72.06
2023-01-05T04:06:46.281Z,72.02
2023-01-05T04:09:18.382Z,72.33
2023-01-05T04:11:48.028Z,72.24
2023-01-05T04:14:16.508Z,72.34
2023-01-05T04:16:45.465Z,72.48
2023-01-05T04:19:19.690Z,72.47
2023-01-05T04:21:51.764Z,72.71
2023-01-05T04:24:24.166Z,72.56
2023-01-05T04:26:52.630Z,72.51
2023-01-05T04:29:24.775Z,72.67
2023-01-05T04:31:55.845Z,72.77
2023-01-05T04:34:24.270Z,72.92
2023-01-05T04:36:56.766Z,72.71
2023-01-05T04:39:27.474Z,72.59
2023-01-05T04:41:57.153Z,72.83
2023-01-05T04:44:27.595Z,72.66
2023-01-05T04:46:57.705Z,72.53
2023-01-05T04:49:26.487Z,72.72
2023-01-05T04:51:55.188Z,72.33
2023-01-05T04:54:25.274Z,72.22
2023-01-05T04:56:55.683Z,72.46
2023-01-05T04:59:25.449Z,72.29
2023-01-05T05:01:54.826Z,72.00
2023-01-05T05:04:23.430Z,72.02
2023-01-05T05:06:52.811Z,71.94
2023-01-05T05:09:24.973Z,71.99
2023-01-05T05:11:55.903Z,71.79
2023-01-05T05:14:25.399Z,71.55
2023-01-05T05:16:56.562Z,71.46
2023-01-05T05:19:25.313Z,71.50
2023-01-05T05:21:55.524Z,71.33
2023-01-05T05:24:26.316Z,71.49
2023-01-05T05:26:57.270Z,70.98
2023-01-05T05:29:26.601Z,71.00
2023-01-05T05:31:55.690Z,70.91
2023-01-05T05:34:24.722Z,71.37
2023-01-05T05:36:53.313Z,71.21
2023-01-05T05:39:21.651Z,71.35
2023-01-05T05:41:51.135Z,71.54
2023-01-05T05:44:20.988Z,71.72
2023-01-05T05:46:50.130Z,71.73
2023-01-05T05:49:18.558Z,71.52
2023-01-05T05:51:46.902Z,71.75
2023-01-05T05:54:16.308Z,71.87
2023-01-05T05:56:44.664Z,71.58
2023-01-05T05:59:13.831Z,71.66
2023-01-05T06:01:43.742Z,71.60
2023-01-05T06:04:12.606Z,71.57
2023-01-05T06:06:40.958Z,71.69
2023-01-05T06:09:09.649Z,71.53
2023-01-05T06:11:38.666Z,71.88
2023-01-05T06:14:07.972Z,72.08
2023-01-05T06:16:36.790Z,71.79
2023-01-05T06:19:06.604Z,71.88
2023-01-05T06:21:35.653Z,72.23
2023-01-05T06:24:04.056Z,71.93
2023-01-05T06:26:33.138Z,72.21
2023-01-05T06:29:02.051Z,72.40
2023-01-05T06:31:30.426Z,72.20
2023-01-05T06:33:58.927Z,72.38
2023-01-05T06:36:28.675Z,72.55
2023-01-05T06:38:57.049Z,72.61
2023-01-05T06:41:25.387Z,72.74
2023-01-05T06:43:54.696Z,72.97
2023-01-05T06:46:23.721Z,73.20
2023-01-05T06:48:52.860Z,73.07
2023-01-05T06:51:21.188Z,73.50
2023-01-05T06:53:51.674Z,73.47
2023-01-05T06:56:20.017Z,73.70
2023-01-05T06:58:49.193Z,73.73
2023-01-05T07:01:17.692Z,73.79
2023-01-05T07:03:46.633Z,74.05
2023-01-05T07:06:16.253Z,74.09
2023-01-05T07:08:45.089Z,74.14
2023-01-05T07:11:14.883Z,74.18
2023-01-05T07:13:44.204Z,74.44
2023-01-05T07:16:12.575Z,74.68
2023-01-05T07:18:40.938Z,74.32
2023-01-05T07:21:09.863Z,74.65
2023-01-05T07:23:39.179Z,74.68
2023-01-05T07:26:08.105Z,75.26
2023-01-05T07:28:39.334Z,75.49
2023-01-05T07:31:08.518Z,75.81
2023-01-05T07:33:40.341Z,75.97
2023-01-05T07:36:09.834Z,75.78
2023-01-05T07:38:38.953Z,75.91
2023-01-05T07:41:07.557Z,76.18
2023-01-05T07:43:37.090Z,76.46
2023-01-05T07:46:06.893Z,76.37
2023-01-05T07:48:35.714Z,76.66
2023-01-05T07:51:06.223Z,76.61
2023-01-05T07:53:43.856Z,76.85
2023-01-05T07:56:14.164Z,77.04
2023-01-05T07:58:43.193Z,77.26
2023-01-05T08:01:15.337Z,77.71
2023-01-05T08:03:44.212Z,77.73
2023-01-05T08:06:14.267Z,77.83
2023-01-05T08:08:43.919Z,78.27
2023-01-05T08:11:15.564Z,78.14
2023-01-05T08:14:03.795Z,78.45
2023-01-05T08:16:34.516Z,78.52
2023-01-05T08:19:09.236Z,78.77
2023-01-05T08:21:39.517Z,79.41
2023-01-05T08:24:09.309Z,79.50
2023-01-05T08:26:37.859Z,79.54
2023-01-05T08:29:06.782Z,79.76
2023-01-05T08:31:37.997Z,79.75
2023-01-05T08:34:06.769Z,79.83
2023-01-05T08:36:35.893Z,80.03
2023-01-05T08:39:05.230Z,79.88
2023-01-05T08:41:35.822Z,80.54
2023-01-05T08:44:08.126Z,80.45
2023-01-05T08:46:39.015Z,80.40
2023-01-05T08:49:09.959Z,80.44
2023-01-05T08:51:38.810Z,80.88
2023-01-05T08:54:07.897Z,80.94
2023-01-05T08:56:39.000Z,80.85
2023-01-05T08:59:09.186Z,80.89
2023-01-05T09:01:38.995Z,80.57
2023-01-05T09:04:08.629Z,80.49
2023-01-05T09:06:37.213Z,80.51
2023-01-05T09:09:06.928Z,80.22
2023-01-05T09:11:35.488Z,80.37
2023-01-05T09:14:04.837Z,80.21
2023-01-05T09:17:06.044Z,80.00
2023-01-05T09:19:26.882Z,79.58
2023-01-05T09:21:56.011Z,79.53
2023-01-05T09:24:25.093Z,79.40
2023-01-05T09:26:53.482Z,79.31
2023-01-05T09:29:22.359Z,79.35
2023-01-05T09:31:51.152Z,78.92
2023-01-05T09:34:19.761Z,78.42
2023-01-05T09:36:49.703Z,78.50
2023-01-05T09:39:18.060Z,78.07
2023-01-05T09:41:50.674Z,78.00
2023-01-05T09:44:29.175Z,77.97
2023-01-05T09:47:03.907Z,77.13
2023-01-05T09:49:35.084Z,76.78
2023-01-05T09:52:09.370Z,76.71
2023-01-05T09:54:38.965Z,76.42
2023-01-05T09:57:14.081Z,76.09
2023-01-05T09:59:47.517Z,75.71
2023-01-05T10:02:22.546Z,75.52
2023-01-05T10:04:53.288Z,75.11
2023-01-05T10:07:31.601Z,74.95
2023-01-05T10:10:04.266Z,74.90
2023-01-05T10:13:01.098Z,74.56
2023-01-05T10:15:35.697Z,74.60
2023-01-05T10:18:11.989Z,74.12
2023-01-05T10:21:08.077Z,74.53
2023-01-05T10:23:53.711Z,74.13
2023-01-05T10:26:28.273Z,73.62
2023-01-05T10:29:02.348Z,74.03
2023-01-05T10:31:45.951Z,73.76
2023-01-05T10:34:22.806Z,73.47
2023-01-05T10:37:08.404Z,73.52
2023-01-05T10:40:04.604Z,73.34
2023-01-05T10:42:51.078Z,73.28
2023-01-05T10:45:21.074Z,73.20
2023-01-05T10:47:51.462Z,73.54
2023-01-05T10:50:29.817Z,73.24
2023-01-05T10:52:59.885Z,72.83
2023-01-05T10:55:32.440Z,72.59
2023-01-05T10:58:00.988Z,72.76
2023-01-05T11:00:42.967Z,72.83
2023-01-05T11:03:16.143Z,72.40
2023-01-05T11:05:47.247Z,72.65
2023-01-05T11:08:19.621Z,72.52
2023-01-05T11:10:56.921Z,72.71
2023-01-05T11:13:34.685Z,72.56
2023-01-05T11:16:09.949Z,72.58
2023-01-05T11:18:49.179Z,72.78
2023-01-05T11:21:20.963Z,72.92
2023-01-05T11:23:51.756Z,72.89
2023-01-05T11:26:25.717Z,73.03
2023-01-05T11:29:16.186Z,73.09
2023-01-05T11:31:51.415Z,73.23
2023-01-05T11:34:40.097Z,72.76
2023-01-05T11:37:20.262Z,73.11
2023-01-05T11:39:52.878Z,72.78
2023-01-05T11:42:30.669Z,73.07
2023-01-05T11:45:01.439Z,72.71
2023-01-05T11:47:43.169Z,72.58
2023-01-05T11:50:21.938Z,72.70
2023-01-05T11:52:52.625Z,72.66
2023-01-05T11:55:33.956Z,72.76
2023-01-05T11:58:26.249Z,72.37
2023-01-05T12:01:12.511Z,72.19
2023-01-05T12:03:59.466Z,72.19
2023-01-05T12:06:47.100Z,72.11
2023-01-05T12:09:27.446Z,71.61
2023-01-05T12:12:12.439Z,71.44
2023-01-05T12:15:12.420Z,71.64
2023-01-05T12:17:51.918Z,71.35
2023-01-05T12:20:35.451Z,71.25
2023-01-05T12:23:28.646Z,71.28
2023-01-05T12:26:04.371Z,71.28
2023-01-05T12:28:56.612Z,71.30
2023-01-05T12:35:01.502Z,71.58
2023-01-05T12:37:41.387Z,71.46
2023-01-05T12:40:28.686Z,71.41
2023-01-05T12:43:04.045Z,71.78
2023-01-05T12:45:53.169Z,71.83
2023-01-05T12:48:30.570Z,72.05
2023-01-05T12:51:07.679Z,71.96
2023-01-05T12:53:45.566Z,72.09
2023-01-05T12:56:22.091Z,72.41
2023-01-05T12:58:59.662Z,72.37
2023-01-05T13:01:32.223Z,72.57
2023-01-05T13:04:05.983Z,72.37
2023-01-05T13:06:40.636Z,72.59
2023-01-05T13:09:14.730Z,72.56
2023-01-05T13:11:50.508Z,72.53
2023-01-05T13:14:22.817Z,72.39
2023-01-05T13:16:58.488Z,72.50
2023-01-05T13:19:32.650Z,72.50
2023-01-05T13:22:06.036Z,72.44
2023-01-05T13:24:38.778Z,72.51
2023-01-05T13:27:08.074Z,72.54
2023-01-05T13:29:41.158Z,72.12
2023-01-05T13:32:26.233Z,72.05
2023-01-05T13:35:14.427Z,71.68
2023-01-05T13:38:20.867Z,71.60
2023-01-05T13:41:08.474Z,71.28
2023-01-05T13:43:53.778Z,71.14
2023-01-05T13:46:44.871Z,70.66
2023-01-05T13:49:34.892Z,70.33
2023-01-05T13:52:10.668Z,70.11
2023-01-05T13:55:00.031Z,69.81
2023-01-05T13:57:32.073Z,69.50
2023-01-05T14:00:09.519Z,69.40
2023-01-05T14:02:45.993Z,68.95
2023-01-05T14:05:25.548Z,68.78
2023-01-05T14:07:58.847Z,68.75
2023-01-05T14:10:30.937Z,68.29
2023-01-05T14:13:00.908Z,68.12
2023-01-05T14:15:39.611Z,67.98
2023-01-05T14:18:10.143Z,67.83
2023-01-05T14:20:46.376Z,67.74
2023-01-05T14:23:57.201Z,67.70
2023-01-05T14:27:07.578Z,67.89
2023-01-05T14:30:00.891Z,67.69
2023-01-05T14:32:31.971Z,67.20
2023-01-05T14:35:06.886Z,67.35
2023-01-05T14:37:38.476Z,67.42
2023-01-05T14:40:35.213Z,66.96
2023-01-05T14:43:06.932Z,67.15
2023-01-05T14:45:38.967Z,66.79
2023-01-05T14:48:26.672Z,66.96
2023-01-05T14:51:23.899Z,66.74
2023-01-05T14:53:54.561Z,66.85
2023-01-05T14:56:26.703Z,66.80
2023-01-05T14:59:00.130Z,66.68
2023-01-05T15:01:34.960Z,66.67
2023-01-05T15:04:08.708Z,66.53
2023-01-05T15:06:58.909Z,66.44
2023-01-05T15:09:48.444Z,66.54
2023-01-05T15:12:33.180Z,66.46
2023-01-05T15:15:20.603Z,66.48
2023-01-05T15:18:13.284Z,66.51
2023-01-05T15:21:18.449Z,66.54
2023-01-05T15:24:21.071Z,66.63
2023-01-05T15:27:12.396Z,66.81
2023-01-05T15:29:57.015Z,66.79
2023-01-05T15:32:28.742Z,66.71
2023-01-05T15:35:05.217Z,66.81
2023-01-05T15:37:36.677Z,66.74
2023-01-05T15:40:09.250Z,66.50
2023-01-05T15:42:41.775Z,66.87
2023-01-05T15:45:19.890Z,66.60
2023-01-05T15:47:49.053Z,66.56
2023-01-05T15:50:20.982Z,66.73
2023-01-05T15:52:55.367Z,66.51
2023-01-05T15:55:24.477Z,66.69
2023-01-05T15:57:54.768Z,66.93
2023-01-05T16:00:28.003Z,66.88
2023-01-05T16:02:57.234Z,66.67
2023-01-05T16:05:27.757Z,66.77
2023-01-05T16:07:59.135Z,66.87
2023-01-05T16:10:32.270Z,66.71
2023-01-05T16:13:05.233Z,66.81
2023-01-05T16:15:36.789Z,66.60
2023-01-05T16:18:08.767Z,66.59
2023-01-05T16:20:41.128Z,66.92
2023-01-05T16:23:23.268Z,66.78
2023-01-05T16:25:55.309Z,66.46
2023-01-05T16:28:26.145Z,66.52
2023-01-05T16:30:56.528Z,66.40
2023-01-05T16:33:34.669Z,66.63
2023-01-05T16:36:14.997Z,66.48
2023-01-05T16:38:43.358Z,66.51
2023-01-05T16:41:15.307Z,66.25
2023-01-05T16:43:53.038Z,66.46
2023-01-05T16:46:41.763Z,66.64
2023-01-05T16:49:57.317Z,66.74
2023-01-05T16:52:30.891Z,66.55
2023-01-05T16:55:28.176Z,66.68
2023-01-05T16:57:58.752Z,66.37
2023-01-05T17:00:37.789Z,66.43
2023-01-05T17:03:30.422Z,66.73
2023-01-05T17:06:00.250Z,66.46
2023-01-05T17:08:31.888Z,66.54
2023-01-05T17:11:02.928Z,66.69
2023-01-05T17:13:44.293Z,66.91
2023-01-05T17:16:14.170Z,66.89
2023-01-05T17:18:43.860Z,66.65
2023-01-05T17:21:16.938Z,66.80
2023-01-05T17:23:48.098Z,66.94
2023-01-05T17:26:22.772Z,66.96
2023-01-05T17:28:52.695Z,66.94
2023-01-05T17:31:21.134Z,66.81
2023-01-05T17:33:51.398Z,67.06
2023-01-05T17:36:22.214Z,67.05
2023-01-05T17:38:50.555Z,67.28
2023-01-05T17:41:19.108Z,67.12
2023-01-05T17:43:48.211Z,67.31
2023-01-05T17:46:19.144Z,67.43
2023-01-05T17:48:48.703Z,67.37
2023-01-05T17:51:18.422Z,67.86
2023-01-05T17:53:46.763Z,67.84
2023-01-05T17:56:16.366Z,67.90
2023-01-05T17:58:47.132Z,67.83
2023-01-05T18:01:15.943Z,68.06
2023-01-05T18:03:44.319Z,68.07
2023-01-05T18:06:13.452Z,68.19
2023-01-05T18:08:44.000Z,68.45
2023-01-05T18:11:13.159Z,68.43
2023-01-05T18:16:13.611Z,68.75
2023-01-05T18:18:42.077Z,68.55
2023-01-05T18:21:10.723Z,68.78
2023-01-05T18:23:39.133Z,68.57
2023-01-05T18:26:11.729Z,68.83
2023-01-05T18:28:43.555Z,68.99
2023-01-05T18:31:14.053Z,68.85
2023-01-05T18:33:43.101Z,68.63
2023-01-05T18:36:14.126Z,68.88
2023-01-05T18:38:43.950Z,68.74
2023-01-05T18:41:14.275Z,68.58
2023-01-05T18:43:45.209Z,68.89
2023-01-05T18:46:13.920Z,68.81
2023-01-05T18:48:42.295Z,68.56
2023-01-05T18:51:11.396Z,68.61
2023-01-05T18:53:40.120Z,68.79
2023-01-05T18:56:09.976Z,68.51
2023-01-05T18:58:40.003Z,68.52
2023-01-05T19:01:10.502Z,68.51
2023-01-05T19:03:39.398Z,68.43
2023-01-05T19:06:10.863Z,68.40
2023-01-05T19:08:40.254Z,68.47
2023-01-05T19:11:14.635Z,68.58
2023-01-05T19:13:47.114Z,68.64
2023-01-05T19:16:17.331Z,68.70
2023-01-05T19:18:50.323Z,68.68
2023-01-05T19:21:19.285Z,68.61
2023-01-05T19:23:47.815Z,68.42
2023-01-05T19:26:16.474Z,68.57
2023-01-05T19:28:46.415Z,68.66
2023-01-05T19:31:16.300Z,68.53
2023-01-05T19:33:45.203Z,68.35
2023-01-05T19:36:19.721Z,68.45
2023-01-05T19:38:49.036Z,68.31
2023-01-05T19:41:19.048Z,68.60
2023-01-05T19:43:50.296Z,68.19
2023-01-05T19:46:20.251Z,68.55
2023-01-05T19:48:49.251Z,68.52
2023-01-05T19:51:20.651Z,68.58
2023-01-05T19:53:55.633Z,68.49
2023-01-05T19:56:26.070Z,68.43
2023-01-05T19:58:58.912Z,68.48
2023-01-05T20:01:29.170Z,68.37
2023-01-05T20:03:58.902Z,68.16
2023-01-05T20:06:29.380Z,68.14
2023-01-05T20:09:00.025Z,68.10
2023-01-05T20:11:39.888Z,68.38
2023-01-05T20:14:13.316Z,68.38
2023-01-05T20:16:43.724Z,68.15
2023-01-05T20:19:12.912Z,68.09
2023-01-05T20:21:41.332Z,67.95
2023-01-05T20:24:17.361Z,68.02
2023-01-05T20:26:47.114Z,68.35
2023-01-05T20:29:19.214Z,68.26
2023-01-05T20:31:53.382Z,68.21
2023-01-05T20:34:24.068Z,67.91
2023-01-05T20:36:52.686Z,67.98
2023-01-05T20:39:23.706Z,68.08
2023-01-05T20:41:54.029Z,68.06
2023-01-05T20:44:26.839Z,68.25
2023-01-05T20:46:55.798Z,68.07
2023-01-05T20:49:26.171Z,68.17
2023-01-05T20:51:55.655Z,68.22
2023-01-05T20:54:24.018Z,68.25
2023-01-05T20:56:52.353Z,68.48
2023-01-05T20:59:25.330Z,68.04
2023-01-05T21:01:53.814Z,68.27
2023-01-05T21:04:23.086Z,68.26
2023-01-05T21:06:54.241Z,68.53
2023-01-05T21:09:23.055Z,68.38
2023-01-05T21:11:52.659Z,68.60
2023-01-05T21:14:21.351Z,68.73
2023-01-05T21:16:54.470Z,68.41
2023-01-05T21:19:24.269Z,68.35
2023-01-05T21:21:58.029Z,68.26
2023-01-05T21:24:27.165Z,68.53
2023-01-05T21:26:56.186Z,68.61
2023-01-05T21:29:26.246Z,68.28
2023-01-05T21:31:57.381Z,68.56
2023-01-05T21:34:26.214Z,68.47
2023-01-05T21:36:54.540Z,68.60
2023-01-05T21:39:24.973Z,68.30
2023-01-05T21:42:11.974Z,68.56
2023-01-05T21:44:40.640Z,68.28
2023-01-05T21:47:11.002Z,68.32
2023-01-05T21:49:39.354Z,68.18
2023-01-05T21:52:26.320Z,68.45
2023-01-05T21:55:26.959Z,68.48
2023-01-05T21:57:55.927Z,68.49
2023-01-05T22:00:24.813Z,68.62
2023-01-05T22:02:54.699Z,68.34
2023-01-05T22:05:23.647Z,68.35
2023-01-05T22:07:52.419Z,68.68
2023-01-05T22:10:20.867Z,68.54
2023-01-05T22:12:49.676Z,68.53
2023-01-05T22:15:18.319Z,68.46
2023-01-05T22:17:47.139Z,68.59
2023-01-05T22:20:17.131Z,68.37
2023-01-05T22:22:45.732Z,68.42
2023-01-05T22:25:14.098Z,68.61
2023-01-05T22:27:42.936Z,68.84
2023-01-05T22:30:12.525Z,68.70
2023-01-05T22:32:40.893Z,68.80
2023-01-05T22:35:10.805Z,68.71
2023-01-05T22:37:40.532Z,68.55
2023-01-05T22:40:11.106Z,68.64
2023-01-05T22:42:40.064Z,68.92
2023-01-05T22:45:10.242Z,68.66
2023-01-05T22:47:38.751Z,68.78
2023-01-05T22:50:08.416Z,69.10
2023-01-05T22:52:36.718Z,69.15
2023-01-05T22:55:07.922Z,69.08
2023-01-05T22:57:36.659Z,69.30
2023-01-05T23:00:08.377Z,69.39
2023-01-05T23:02:37.420Z,69.58
2023-01-05T23:05:06.553Z,69.55
2023-01-05T23:07:35.306Z,69.61
2023-01-05T23:10:04.407Z,69.42
2023-01-05T23:12:34.361Z,69.57
2023-01-05T23:15:04.113Z,69.64
2023-01-05T23:17:32.495Z,69.86
2023-01-05T23:20:01.802Z,69.67
2023-01-05T23:22:30.150Z,70.03
2023-01-05T23:25:00.420Z,70.04
2023-01-05T23:27:29.164Z,69.96
2023-01-05T23:29:58.990Z,69.92
2023-01-05T23:32:27.966Z,70.06
2023-01-05T23:34:56.760Z,70.30
2023-01-05T23:37:25.132Z,70.19
2023-01-05T23:39:54.172Z,70.23
2023-01-05T23:42:48.327Z,70.35
2023-01-05T23:45:19.113Z,70.42
2023-01-05T23:47:47.470Z,70.51
2023-01-05T23:50:16.711Z,70.30
2023-01-05T23:52:45.031Z,70.53
2023-01-05T23:55:13.654Z,70.77
2023-01-05T23:57:41.980Z,70.88
